createdAt,value
2018-04-24T00:01:16.049Z,6.00
2018-04-24T00:03:44.332Z,4.23
2018-04-24T00:06:12.606Z,5.47
2018-04-24T00:08:40.863Z,3.87
2018-04-24T00:11:09.875Z,3.60
2018-04-24T00:13:38.924Z,7.13
2018-04-24T00:16:07.171Z,6.37
2018-04-24T00:18:36.200Z,6.90
2018-04-24T00:21:04.474Z,7.43
2018-04-24T00:23:33.515Z,5.47
2018-04-24T00:26:01.826Z,6.27
2018-04-24T00:28:30.094Z,4.20
2018-04-24T00:30:58.342Z,5.53
2018-04-24T00:33:26.619Z,4.40
2018-04-24T00:35:54.884Z,7.73
2018-04-24T00:38:23.144Z,7.00
2018-04-24T00:40:51.428Z,4.00
2018-04-24T00:43:19.709Z,3.50
2018-04-24T00:45:48.769Z,3.67
2018-04-24T00:48:17.005Z,3.43
2018-04-24T00:50:46.079Z,3.03
2018-04-24T00:53:32.068Z,3.00
2018-04-24T00:56:00.360Z,3.07
2018-04-24T00:58:28.638Z,5.67
2018-04-24T01:00:56.911Z,5.28
2018-04-24T01:03:25.183Z,5.23
2018-04-24T01:05:53.448Z,5.57
2018-04-24T01:08:21.725Z,5.30
2018-04-24T01:10:50.017Z,4.47
2018-04-24T01:13:19.043Z,4.22
2018-04-24T01:15:48.149Z,6.47
2018-04-24T01:18:16.477Z,3.85
2018-04-24T01:20:44.771Z,5.10
2018-04-24T01:23:13.032Z,4.70
2018-04-24T01:25:42.097Z,4.13
2018-04-24T01:28:11.126Z,3.85
2018-04-24T01:30:39.444Z,5.73
2018-04-24T01:33:08.508Z,4.15
2018-04-24T01:35:36.768Z,4.43
2018-04-24T01:38:05.044Z,5.87
2018-04-24T01:40:33.349Z,6.30
2018-04-24T01:43:01.728Z,4.20
2018-04-24T01:45:30.745Z,5.40
2018-04-24T01:47:59.028Z,5.57
2018-04-24T01:50:28.046Z,4.77
2018-04-24T01:52:56.330Z,4.43
2018-04-24T01:55:24.599Z,5.00
2018-04-24T01:57:53.625Z,4.18
2018-04-24T02:00:21.899Z,5.33
2018-04-24T02:02:50.171Z,5.68
2018-04-24T02:05:18.427Z,4.17
2018-04-24T02:07:46.792Z,7.75
2018-04-24T02:10:15.055Z,4.33
2018-04-24T02:12:44.089Z,5.45
2018-04-24T02:15:12.367Z,7.12
2018-04-24T02:17:40.640Z,7.22
2018-04-24T02:20:09.683Z,8.40
2018-04-24T02:22:37.974Z,7.70
2018-04-24T02:25:06.261Z,4.83
2018-04-24T02:27:34.455Z,5.72
2018-04-24T02:30:02.713Z,7.33
2018-04-24T02:32:31.779Z,5.00
2018-04-24T02:35:00.045Z,5.50
2018-04-24T02:37:28.313Z,5.20
2018-04-24T02:39:56.607Z,5.30
2018-04-24T02:42:24.854Z,6.10
2018-04-24T02:44:53.137Z,7.35
2018-04-24T02:47:21.395Z,10.73
2018-04-24T02:49:49.643Z,7.70
2018-04-24T02:52:18.691Z,8.23
2018-04-24T02:54:46.966Z,5.05
2018-04-24T02:57:15.221Z,6.97
2018-04-24T02:59:44.291Z,8.15
2018-04-24T03:02:12.601Z,6.00
2018-04-24T03:04:40.873Z,5.82
2018-04-24T03:07:09.177Z,7.87
2018-04-24T03:09:38.258Z,6.87
2018-04-24T03:12:06.512Z,6.18
2018-04-24T03:14:35.531Z,6.05
2018-04-24T03:17:03.792Z,6.30
2018-04-24T03:19:32.057Z,5.20
2018-04-24T03:22:00.306Z,5.70
2018-04-24T03:24:28.580Z,8.18
2018-04-24T03:26:57.678Z,6.17
2018-04-24T03:29:25.853Z,6.12
2018-04-24T03:31:54.131Z,7.07
2018-04-24T03:34:22.409Z,8.15
2018-04-24T03:36:50.673Z,6.40
2018-04-24T03:39:18.955Z,7.18
2018-04-24T03:41:47.259Z,7.30
2018-04-24T03:44:15.510Z,8.63
2018-04-24T03:46:44.583Z,6.80
2018-04-24T03:49:13.040Z,5.87
2018-04-24T03:51:41.308Z,7.07
2018-04-24T03:54:10.444Z,6.15
2018-04-24T03:56:38.729Z,8.33
2018-04-24T03:59:06.975Z,5.20
2018-04-24T04:01:35.427Z,7.17
2018-04-24T04:04:03.677Z,7.60
2018-04-24T04:06:32.809Z,9.50
2018-04-24T04:09:01.100Z,9.30
2018-04-24T04:11:30.114Z,10.13
2018-04-24T04:13:58.392Z,6.28
2018-04-24T04:16:26.654Z,8.95
2018-04-24T04:19:13.422Z,6.53
2018-04-24T04:21:59.565Z,10.13
2018-04-24T04:24:47.727Z,8.27
2018-04-24T04:27:16.039Z,7.60
2018-04-24T04:29:45.142Z,9.20
2018-04-24T04:32:13.463Z,7.63
2018-04-24T04:34:42.505Z,7.50
2018-04-24T04:37:10.763Z,7.27
2018-04-24T04:39:39.037Z,6.40
2018-04-24T04:42:08.080Z,7.53
2018-04-24T04:44:36.360Z,6.78
2018-04-24T04:47:04.650Z,5.70
2018-04-24T04:49:32.936Z,8.57
2018-04-24T04:52:01.186Z,5.83
2018-04-24T04:54:29.448Z,7.53
2018-04-24T04:56:57.719Z,7.75
2018-04-24T04:59:25.967Z,7.12
2018-04-24T05:01:55.045Z,6.15
2018-04-24T05:04:23.350Z,8.30
2018-04-24T05:06:51.621Z,8.60
2018-04-24T05:09:19.883Z,6.35
2018-04-24T05:11:48.171Z,5.72
2018-04-24T05:14:16.577Z,5.20
2018-04-24T05:16:44.957Z,4.20
2018-04-24T05:19:13.247Z,6.80
2018-04-24T05:21:41.504Z,6.50
2018-04-24T05:24:10.546Z,4.83
2018-04-24T05:26:38.894Z,5.97
2018-04-24T05:29:07.854Z,4.27
2018-04-24T05:31:36.104Z,7.03
2018-04-24T05:34:05.531Z,5.78
2018-04-24T05:36:33.792Z,7.07
2018-04-24T05:39:02.056Z,5.45
2018-04-24T05:41:30.324Z,5.15
2018-04-24T05:43:58.580Z,4.90
2018-04-24T05:46:27.611Z,7.22
2018-04-24T05:48:55.896Z,9.23
2018-04-24T05:51:24.151Z,5.82
2018-04-24T05:53:52.419Z,11.27
2018-04-24T05:56:20.708Z,5.18
2018-04-24T05:58:49.703Z,4.93
2018-04-24T06:01:17.978Z,5.93
2018-04-24T06:03:46.254Z,8.47
2018-04-24T06:06:14.782Z,9.10
2018-04-24T06:08:43.124Z,7.30
2018-04-24T06:11:11.364Z,7.07
2018-04-24T06:13:39.638Z,5.60
2018-04-24T06:16:07.899Z,7.53
2018-04-24T06:18:36.945Z,6.70
2018-04-24T06:21:05.216Z,5.43
2018-04-24T06:23:33.467Z,7.67
2018-04-24T06:26:02.519Z,5.35
2018-04-24T06:28:30.890Z,7.77
2018-04-24T06:30:59.099Z,10.50
2018-04-24T06:33:27.360Z,6.80
2018-04-24T06:35:56.455Z,5.40
2018-04-24T06:38:24.670Z,6.90
2018-04-24T06:40:52.947Z,8.35
2018-04-24T06:43:21.989Z,4.87
2018-04-24T06:45:50.239Z,6.03
2018-04-24T06:48:19.305Z,6.75
2018-04-24T06:50:47.578Z,7.53
2018-04-24T06:53:15.856Z,5.90
2018-04-24T06:55:44.162Z,8.63
2018-04-24T06:58:12.423Z,7.37
2018-04-24T07:00:40.736Z,6.83
2018-04-24T07:03:09.745Z,7.30
2018-04-24T07:05:38.001Z,6.80
2018-04-24T07:08:07.017Z,6.67
2018-04-24T07:10:35.288Z,7.23
2018-04-24T07:13:04.362Z,6.40
2018-04-24T07:15:32.608Z,6.70
2018-04-24T07:18:00.879Z,5.60
2018-04-24T07:20:29.916Z,4.83
2018-04-24T07:22:58.167Z,7.10
2018-04-24T07:25:26.455Z,7.53
2018-04-24T07:27:54.711Z,6.23
2018-04-24T07:30:22.985Z,5.90
2018-04-24T07:32:51.296Z,7.80
2018-04-24T07:35:20.280Z,7.78
2018-04-24T07:37:48.663Z,8.03
2018-04-24T07:40:17.055Z,4.90
2018-04-24T07:42:45.328Z,5.50
2018-04-24T07:45:14.360Z,7.30
2018-04-24T07:47:42.846Z,6.63
2018-04-24T07:50:11.116Z,7.43
2018-04-24T07:52:40.140Z,7.43
2018-04-24T07:55:08.447Z,9.90
2018-04-24T07:57:36.703Z,7.77
2018-04-24T08:00:04.986Z,4.60
2018-04-24T08:02:34.032Z,6.00
2018-04-24T08:05:02.298Z,6.17
2018-04-24T08:07:31.315Z,9.73
2018-04-24T08:09:59.588Z,8.33
2018-04-24T08:12:28.619Z,7.33
2018-04-24T08:14:56.872Z,6.77
2018-04-24T08:17:25.915Z,7.87
2018-04-24T08:19:54.171Z,8.03
2018-04-24T08:22:23.218Z,9.63
2018-04-24T08:24:51.488Z,9.05
2018-04-24T08:27:19.757Z,7.00
2018-04-24T08:29:48.016Z,7.60
2018-04-24T08:32:16.292Z,6.77
2018-04-24T08:34:44.572Z,10.03
2018-04-24T08:37:12.880Z,8.53
2018-04-24T08:39:41.172Z,7.23
2018-04-24T08:42:09.438Z,8.03
2018-04-24T08:44:37.702Z,8.17
2018-04-24T08:47:06.732Z,7.10
2018-04-24T08:49:35.118Z,8.07
2018-04-24T08:52:03.366Z,8.73
2018-04-24T08:54:31.644Z,12.03
2018-04-24T08:56:59.916Z,9.47
2018-04-24T08:59:28.188Z,11.23
2018-04-24T09:01:56.505Z,12.33
2018-04-24T09:04:25.151Z,10.23
2018-04-24T09:06:54.215Z,15.80
2018-04-24T09:09:22.502Z,12.53
2018-04-24T09:11:50.759Z,12.70
2018-04-24T09:14:19.014Z,11.82
2018-04-24T09:16:47.303Z,14.67
2018-04-24T09:19:15.562Z,15.67
2018-04-24T09:21:43.831Z,15.73
2018-04-24T09:24:12.141Z,12.65
2018-04-24T09:26:40.396Z,12.87
2018-04-24T09:29:08.661Z,13.55
2018-04-24T09:31:43.633Z,13.37
2018-04-24T09:34:11.897Z,12.73
2018-04-24T09:36:40.923Z,12.77
2018-04-24T09:39:09.208Z,11.32
2018-04-24T09:41:37.473Z,12.27
2018-04-24T09:44:05.726Z,14.50
2018-04-24T09:46:34.006Z,11.27
2018-04-24T09:49:02.285Z,13.67
2018-04-24T09:51:31.341Z,10.33
2018-04-24T09:53:59.623Z,11.90
2018-04-24T09:56:27.889Z,13.47
2018-04-24T09:58:56.139Z,11.77
2018-04-24T10:01:27.347Z,12.35
2018-04-24T10:03:55.611Z,11.13
2018-04-24T10:06:24.715Z,12.53
2018-04-24T10:08:52.997Z,11.10
2018-04-24T10:11:21.260Z,13.77
2018-04-24T10:13:50.316Z,8.70
2018-04-24T10:16:18.581Z,14.23
2018-04-24T10:18:47.604Z,11.60
2018-04-24T10:21:15.867Z,11.40
2018-04-24T10:23:44.992Z,10.77
2018-04-24T10:26:13.547Z,11.20
2018-04-24T10:28:41.813Z,10.77
2018-04-24T10:31:10.094Z,10.10
2018-04-24T10:33:38.349Z,12.97
2018-04-24T10:36:07.394Z,11.80
2018-04-24T10:38:35.673Z,12.43
2018-04-24T10:41:03.923Z,12.47
2018-04-24T10:43:32.996Z,11.87
2018-04-24T10:46:01.265Z,11.03
2018-04-24T10:48:29.519Z,9.23
2018-04-24T10:50:58.536Z,8.90
2018-04-24T10:53:26.816Z,9.43
2018-04-24T10:55:55.880Z,10.60
2018-04-24T10:58:24.100Z,11.07
2018-04-24T11:00:52.394Z,8.80
2018-04-24T11:03:20.656Z,10.33
2018-04-24T11:05:48.913Z,9.90
2018-04-24T11:08:17.188Z,10.80
2018-04-24T11:10:45.461Z,13.50
2018-04-24T11:13:14.547Z,10.50
2018-04-24T11:15:42.774Z,10.67
2018-04-24T11:18:11.049Z,10.37
2018-04-24T11:20:40.093Z,9.97
2018-04-24T11:23:08.372Z,11.57
2018-04-24T11:25:36.635Z,10.00
2018-04-24T11:28:05.663Z,10.40
2018-04-24T11:30:33.942Z,10.00
2018-04-24T11:33:02.195Z,9.07
2018-04-24T11:35:30.470Z,10.63
2018-04-24T11:37:58.740Z,10.87
2018-04-24T11:40:27.000Z,10.50
2018-04-24T11:42:55.291Z,11.53
2018-04-24T11:45:23.586Z,14.23
2018-04-24T11:47:51.837Z,7.57
2018-04-24T11:50:20.115Z,10.40
2018-04-24T11:52:49.155Z,11.63
2018-04-24T11:55:18.197Z,12.40
2018-04-24T11:57:46.461Z,11.10
2018-04-24T12:00:15.516Z,9.47
2018-04-24T12:02:43.891Z,8.67
2018-04-24T12:05:12.056Z,8.97
2018-04-24T12:07:40.341Z,12.53
2018-04-24T12:10:09.430Z,9.60
2018-04-24T12:12:37.750Z,9.77
2018-04-24T12:15:06.835Z,10.07
2018-04-24T12:17:35.109Z,9.83
2018-04-24T12:20:03.370Z,10.03
2018-04-24T12:22:31.645Z,10.40
2018-04-24T12:24:59.927Z,9.38
2018-04-24T12:27:28.176Z,8.83
2018-04-24T12:29:56.470Z,9.75
2018-04-24T12:32:24.716Z,10.47
2018-04-24T12:34:52.977Z,10.60
2018-04-24T12:37:21.251Z,12.13
2018-04-24T12:39:50.317Z,9.43
2018-04-24T12:42:18.605Z,11.53
2018-04-24T12:44:46.879Z,13.50
2018-04-24T12:47:15.199Z,9.50
2018-04-24T12:49:43.497Z,11.07
2018-04-24T12:52:11.775Z,12.97
2018-04-24T12:54:40.118Z,12.67
2018-04-24T12:57:09.153Z,12.90
2018-04-24T12:59:37.436Z,11.73
2018-04-24T13:02:05.697Z,13.23
2018-04-24T13:04:33.965Z,13.13
2018-04-24T13:07:02.269Z,11.27
2018-04-24T13:09:31.321Z,11.77
2018-04-24T13:11:59.588Z,13.10
2018-04-24T13:14:27.868Z,11.83
2018-04-24T13:16:56.150Z,11.43
2018-04-24T13:19:25.190Z,13.47
2018-04-24T13:21:53.474Z,15.60
2018-04-24T13:24:21.755Z,13.90
2018-04-24T13:26:50.789Z,12.05
2018-04-24T13:29:19.060Z,12.20
2018-04-24T13:31:47.350Z,10.80
2018-04-24T13:34:15.779Z,11.43
2018-04-24T13:36:44.081Z,11.40
2018-04-24T13:39:12.341Z,12.97
2018-04-24T13:41:40.620Z,11.10
2018-04-24T13:44:08.893Z,12.53
2018-04-24T13:46:37.163Z,11.63
2018-04-24T13:49:06.199Z,11.00
2018-04-24T13:51:34.501Z,11.40
2018-04-24T13:54:02.768Z,11.33
2018-04-24T13:56:31.046Z,11.57
2018-04-24T13:59:00.076Z,14.33
2018-04-24T14:01:28.342Z,11.87
2018-04-24T14:03:57.433Z,10.83
2018-04-24T14:06:25.742Z,9.60
2018-04-24T14:08:53.969Z,12.20
2018-04-24T14:11:22.224Z,11.93
2018-04-24T14:13:51.278Z,11.03
2018-04-24T14:16:19.530Z,9.80
2018-04-24T14:18:47.969Z,11.43
2018-04-24T14:21:16.244Z,10.30
2018-04-24T14:23:44.495Z,11.50
2018-04-24T14:26:13.600Z,10.00
2018-04-24T14:28:42.632Z,10.47
2018-04-24T14:31:10.911Z,11.20
2018-04-24T14:33:39.171Z,12.90
2018-04-24T14:36:07.455Z,12.60
2018-04-24T14:38:35.723Z,11.37
2018-04-24T14:41:04.026Z,11.87
2018-04-24T14:43:32.304Z,13.50
2018-04-24T14:46:00.629Z,12.93
2018-04-24T14:48:29.653Z,11.97
2018-04-24T14:50:58.727Z,14.67
2018-04-24T14:53:26.980Z,12.13
2018-04-24T14:55:55.279Z,11.20
2018-04-24T14:58:23.603Z,11.37
2018-04-24T15:00:51.808Z,13.67
2018-04-24T15:03:20.087Z,13.13
2018-04-24T15:05:48.402Z,13.03
2018-04-24T15:08:17.508Z,12.70
2018-04-24T15:10:46.549Z,15.17
2018-04-24T15:13:14.839Z,13.03
2018-04-24T15:15:43.094Z,12.90
2018-04-24T15:18:12.123Z,10.33
2018-04-24T15:20:40.420Z,11.80
2018-04-24T15:23:08.703Z,10.90
2018-04-24T15:25:36.973Z,14.60
2018-04-24T15:28:06.029Z,12.10
2018-04-24T15:30:34.271Z,10.50
2018-04-24T15:33:03.288Z,11.33
2018-04-24T15:35:31.560Z,9.87
2018-04-24T15:37:59.830Z,10.57
2018-04-24T15:40:28.085Z,12.40
2018-04-24T15:42:56.411Z,10.50
2018-04-24T15:45:24.673Z,9.83
2018-04-24T15:47:52.927Z,11.40
2018-04-24T15:50:21.202Z,9.90
2018-04-24T15:52:50.220Z,11.30
2018-04-24T15:55:18.475Z,10.33
2018-04-24T15:57:46.762Z,11.37
2018-04-24T16:00:15.046Z,11.57
2018-04-24T16:02:43.334Z,9.17
2018-04-24T16:05:12.391Z,9.93
2018-04-24T16:07:40.681Z,10.37
2018-04-24T16:10:08.946Z,10.37
2018-04-24T16:12:37.215Z,9.33
2018-04-24T16:15:05.506Z,10.23
2018-04-24T16:17:33.771Z,10.27
2018-04-24T16:20:02.040Z,10.47
2018-04-24T16:22:30.308Z,10.90
2018-04-24T16:24:59.326Z,10.97
2018-04-24T16:27:27.592Z,10.77
2018-04-24T16:29:56.710Z,9.43
2018-04-24T16:32:24.875Z,9.80
2018-04-24T16:34:53.143Z,9.77
2018-04-24T16:37:21.421Z,9.33
2018-04-24T16:39:49.667Z,9.83
2018-04-24T16:42:17.980Z,10.97
2018-04-24T16:44:46.320Z,9.50
2018-04-24T16:47:15.467Z,7.87
2018-04-24T16:49:44.520Z,12.13
2018-04-24T16:52:12.802Z,10.07
2018-04-24T16:54:41.064Z,10.33
2018-04-24T16:57:09.332Z,10.03
2018-04-24T16:59:38.364Z,11.67
2018-04-24T17:02:06.675Z,10.17
2018-04-24T17:04:34.945Z,9.80
2018-04-24T17:07:03.209Z,11.13
2018-04-24T17:09:32.340Z,9.97
2018-04-24T17:12:00.607Z,11.83
2018-04-24T17:14:29.633Z,12.17
2018-04-24T17:16:57.900Z,11.40
2018-04-24T17:19:27.023Z,9.90
2018-04-24T17:21:55.327Z,9.10
2018-04-24T17:24:23.594Z,11.63
2018-04-24T17:26:52.636Z,10.07
2018-04-24T17:29:20.920Z,10.33
2018-04-24T17:31:49.921Z,9.83
2018-04-24T17:34:18.975Z,11.07
2018-04-24T17:36:47.255Z,12.07
2018-04-24T17:39:15.552Z,11.27
2018-04-24T17:41:43.882Z,18.20
2018-04-24T17:44:12.908Z,17.08
2018-04-24T17:46:42.049Z,22.90
2018-04-24T17:49:10.260Z,12.37
2018-04-24T17:51:38.530Z,15.03
2018-04-24T17:54:06.795Z,13.47
2018-04-24T17:56:35.095Z,11.43
2018-04-24T17:59:03.356Z,10.07
2018-04-24T18:01:32.407Z,9.77
2018-04-24T18:04:00.668Z,11.80
2018-04-24T18:06:28.915Z,8.73
2018-04-24T18:08:57.188Z,11.63
2018-04-24T18:11:25.497Z,11.80
2018-04-24T18:13:53.753Z,14.70
2018-04-24T18:16:22.007Z,11.63
2018-04-24T18:18:51.058Z,9.80
2018-04-24T18:21:24.571Z,9.43
2018-04-24T18:23:53.177Z,10.33
2018-04-24T18:26:21.425Z,9.13
2018-04-24T18:28:50.470Z,10.30
2018-04-24T18:31:18.790Z,9.50
2018-04-24T18:33:47.082Z,9.97
2018-04-24T18:36:15.456Z,13.20
2018-04-24T18:38:43.806Z,10.63
2018-04-24T18:41:12.142Z,8.50
2018-04-24T18:43:40.437Z,8.77
2018-04-24T18:46:08.716Z,11.30
2018-04-24T18:48:36.981Z,8.60
2018-04-24T18:51:05.257Z,8.60
2018-04-24T18:53:33.551Z,10.43
2018-04-24T18:56:01.799Z,8.27
2018-04-24T18:58:30.080Z,11.20
2018-04-24T19:00:58.382Z,12.27
2018-04-24T19:03:27.421Z,8.23
2018-04-24T19:05:55.688Z,9.70
2018-04-24T19:08:24.857Z,8.97
2018-04-24T19:10:53.145Z,10.83
2018-04-24T19:13:21.408Z,10.13
2018-04-24T19:15:49.719Z,9.93
2018-04-24T19:18:17.999Z,10.23
2018-04-24T19:20:46.263Z,9.03
2018-04-24T19:23:14.649Z,10.33
2018-04-24T19:25:43.792Z,14.23
2018-04-24T19:28:12.079Z,9.10
2018-04-24T19:30:40.458Z,9.30
2018-04-24T19:33:08.742Z,8.90
2018-04-24T19:35:37.018Z,9.10
2018-04-24T19:38:06.047Z,13.07
2018-04-24T19:40:39.962Z,11.57
2018-04-24T19:43:08.253Z,11.43
2018-04-24T19:45:36.504Z,9.57
2018-04-24T19:48:04.803Z,9.10
2018-04-24T19:50:33.879Z,10.03
2018-04-24T19:53:02.238Z,9.50
2018-04-24T19:55:30.525Z,10.23
2018-04-24T19:57:58.788Z,10.67
2018-04-24T20:00:27.821Z,12.50
2018-04-24T20:02:56.110Z,10.40
2018-04-24T20:05:25.222Z,9.60
2018-04-24T20:07:53.518Z,9.10
2018-04-24T20:10:21.809Z,10.57
2018-04-24T20:12:50.114Z,10.50
2018-04-24T20:15:19.627Z,10.67
2018-04-24T20:17:47.897Z,9.90
2018-04-24T20:20:16.197Z,11.90
2018-04-24T20:22:44.490Z,11.00
2018-04-24T20:25:12.920Z,11.10
2018-04-24T20:27:41.164Z,10.83
2018-04-24T20:30:09.454Z,10.73
2018-04-24T20:32:37.755Z,10.17
2018-04-24T20:35:06.936Z,13.10
2018-04-24T20:37:35.967Z,11.63
2018-04-24T20:40:04.256Z,9.40
2018-04-24T20:42:33.315Z,11.70
2018-04-24T20:45:01.577Z,11.07
2018-04-24T20:47:29.872Z,10.90
2018-04-24T20:49:58.140Z,10.77
2018-04-24T20:52:26.428Z,9.87
2018-04-24T20:54:54.697Z,10.70
2018-04-24T20:57:23.723Z,13.33
2018-04-24T20:59:53.242Z,11.78
2018-04-24T21:02:21.511Z,12.00
2018-04-24T21:04:49.826Z,9.93
2018-04-24T21:07:18.112Z,10.10
2018-04-24T21:09:46.675Z,14.53
2018-04-24T21:12:14.983Z,11.67
2018-04-24T21:14:44.111Z,12.50
2018-04-24T21:17:12.398Z,11.77
2018-04-24T21:19:41.447Z,13.73
2018-04-24T21:22:09.700Z,9.93
2018-04-24T21:24:37.953Z,10.87
2018-04-24T21:27:06.280Z,11.73
2018-04-24T21:29:34.837Z,10.73
2018-04-24T21:32:03.095Z,14.33
2018-04-24T21:34:31.396Z,10.15
2018-04-24T21:36:59.672Z,11.90
2018-04-24T21:39:28.045Z,11.10
2018-04-24T21:41:56.308Z,11.23
2018-04-24T21:44:25.341Z,12.17
2018-04-24T21:46:53.599Z,12.63
2018-04-24T21:49:22.652Z,11.15
2018-04-24T21:51:50.919Z,12.03
2018-04-24T21:54:19.955Z,13.10
2018-04-24T21:56:48.240Z,13.67
2018-04-24T21:59:16.545Z,11.20
2018-04-24T22:01:44.908Z,14.27
2018-04-24T22:04:13.120Z,12.82
2018-04-24T22:06:41.395Z,13.30
2018-04-24T22:09:09.666Z,13.33
2018-04-24T22:11:38.781Z,12.60
2018-04-24T22:14:07.890Z,12.47
2018-04-24T22:16:36.187Z,15.37
2018-04-24T22:19:04.614Z,15.03
2018-04-24T22:21:32.967Z,13.13
2018-04-24T22:24:01.255Z,12.98
2018-04-24T22:26:29.543Z,14.23
2018-04-24T22:28:58.560Z,13.27
2018-04-24T22:31:26.845Z,13.07
2018-04-24T22:33:55.143Z,15.03
2018-04-24T22:36:23.426Z,13.60
2018-04-24T22:38:51.709Z,16.10
2018-04-24T22:41:20.803Z,15.13
2018-04-24T22:43:49.867Z,15.47
2018-04-24T22:46:18.228Z,12.10
2018-04-24T22:48:46.519Z,14.15
2018-04-24T22:51:14.787Z,13.77
2018-04-24T22:53:43.123Z,14.60
2018-04-24T22:56:11.488Z,15.30
2018-04-24T22:58:39.755Z,13.87
2018-04-24T23:01:08.792Z,11.57
2018-04-24T23:03:37.081Z,14.20
2018-04-24T23:06:05.374Z,13.53
2018-04-24T23:08:33.628Z,14.23
2018-04-24T23:11:20.488Z,13.00
2018-04-24T23:14:06.389Z,12.97
2018-04-24T23:16:52.816Z,11.97
2018-04-24T23:19:38.541Z,15.07
2018-04-24T23:22:06.009Z,11.37
2018-04-24T23:24:34.287Z,11.53
2018-04-24T23:27:02.667Z,12.33
2018-04-24T23:29:30.962Z,9.90
2018-04-24T23:31:59.221Z,10.87
2018-04-24T23:34:28.251Z,8.80
2018-04-24T23:36:56.541Z,9.00
2018-04-24T23:39:25.659Z,10.13
2018-04-24T23:41:53.905Z,11.40
2018-04-24T23:44:22.169Z,9.43
2018-04-24T23:46:50.421Z,8.30
2018-04-24T23:49:18.687Z,10.73
2018-04-24T23:51:47.779Z,8.10
2018-04-24T23:54:16.052Z,9.07
2018-04-24T23:56:44.343Z,8.60
2018-04-24T23:59:12.625Z,7.90
